createdAt,value
2018-10-06T00:00:22.815Z,12.70
2018-10-06T00:02:52.273Z,12.83
2018-10-06T00:05:21.848Z,12.79
2018-10-06T00:07:50.844Z,12.65
2018-10-06T00:10:20.183Z,12.67
2018-10-06T00:12:49.724Z,12.60
2018-10-06T00:15:18.824Z,12.64
2018-10-06T00:17:47.936Z,12.58
2018-10-06T00:20:17.094Z,12.55
2018-10-06T00:22:46.241Z,12.63
2018-10-06T00:25:15.406Z,12.55
2018-10-06T00:27:44.524Z,12.55
2018-10-06T00:30:13.657Z,12.54
2018-10-06T00:32:42.750Z,12.55
2018-10-06T00:35:11.813Z,12.55
2018-10-06T00:37:40.884Z,12.58
2018-10-06T00:40:10.497Z,12.50
2018-10-06T00:42:39.959Z,12.60
2018-10-06T00:45:09.112Z,12.44
2018-10-06T00:47:38.555Z,12.51
2018-10-06T00:50:07.980Z,12.40
2018-10-06T00:52:37.444Z,12.47
2018-10-06T00:55:06.868Z,12.38
2018-10-06T00:57:36.245Z,12.27
2018-10-06T01:00:05.544Z,12.22
2018-10-06T01:02:34.528Z,12.24
2018-10-06T01:05:03.918Z,12.19
2018-10-06T01:07:39.321Z,12.17
2018-10-06T01:10:08.373Z,12.17
2018-10-06T01:12:37.864Z,12.15
2018-10-06T01:15:07.014Z,12.08
2018-10-06T01:17:36.107Z,12.12
2018-10-06T01:20:05.420Z,12.13
2018-10-06T01:22:34.874Z,12.11
2018-10-06T01:25:03.852Z,12.11
2018-10-06T01:27:32.956Z,12.10
2018-10-06T01:30:02.113Z,12.02
2018-10-06T01:32:31.226Z,11.96
2018-10-06T01:35:00.394Z,12.00
2018-10-06T01:37:29.671Z,11.77
2018-10-06T01:39:58.975Z,12.02
2018-10-06T01:42:28.528Z,11.94
2018-10-06T01:44:58.012Z,11.94
2018-10-06T01:47:27.419Z,11.96
2018-10-06T01:49:56.917Z,12.03
2018-10-06T01:52:26.218Z,12.00
2018-10-06T01:54:55.258Z,11.97
2018-10-06T01:57:24.314Z,11.93
2018-10-06T01:59:53.432Z,11.87
2018-10-06T02:02:22.533Z,11.80
2018-10-06T02:04:51.664Z,11.76
2018-10-06T02:07:20.711Z,11.72
2018-10-06T02:09:49.815Z,11.66
2018-10-06T02:12:18.979Z,11.68
2018-10-06T02:14:48.098Z,11.60
2018-10-06T02:17:17.137Z,11.63
2018-10-06T02:19:46.202Z,11.64
2018-10-06T02:22:15.542Z,11.59
2018-10-06T02:24:44.534Z,11.62
2018-10-06T02:27:13.658Z,11.58
2018-10-06T02:29:42.768Z,11.55
2018-10-06T02:32:11.827Z,11.49
2018-10-06T02:34:40.902Z,11.47
2018-10-06T02:37:09.970Z,11.49
2018-10-06T02:39:39.083Z,11.43
2018-10-06T02:42:08.511Z,11.53
2018-10-06T02:44:37.886Z,11.56
2018-10-06T02:47:06.971Z,11.55
2018-10-06T02:49:36.035Z,11.52
2018-10-06T02:52:05.155Z,11.47
2018-10-06T02:54:34.196Z,11.41
2018-10-06T02:57:03.301Z,11.52
2018-10-06T02:59:32.358Z,11.39
2018-10-06T03:02:01.459Z,11.40
2018-10-06T03:04:30.708Z,11.47
2018-10-06T03:06:59.973Z,11.36
2018-10-06T03:09:29.029Z,11.41
2018-10-06T03:11:58.134Z,11.30
2018-10-06T03:14:27.108Z,11.32
2018-10-06T03:16:56.168Z,11.28
2018-10-06T03:19:26.360Z,11.35
2018-10-06T03:21:55.424Z,11.41
2018-10-06T03:24:24.432Z,11.49
2018-10-06T03:26:53.628Z,11.50
2018-10-06T03:29:22.649Z,11.50
2018-10-06T03:31:51.723Z,11.42
2018-10-06T03:34:20.786Z,11.35
2018-10-06T03:36:49.892Z,11.32
2018-10-06T03:39:19.018Z,11.47
2018-10-06T03:41:48.027Z,11.44
2018-10-06T03:44:17.084Z,11.41
2018-10-06T03:46:46.150Z,11.45
2018-10-06T03:49:15.319Z,11.60
2018-10-06T03:51:44.351Z,11.48
2018-10-06T03:54:13.478Z,11.43
2018-10-06T03:56:43.910Z,11.35
2018-10-06T03:59:14.126Z,11.26
2018-10-06T04:01:43.728Z,11.14
2018-10-06T04:04:13.047Z,11.14
2018-10-06T04:06:42.644Z,11.03
2018-10-06T04:09:11.947Z,11.11
2018-10-06T04:11:41.047Z,11.05
2018-10-06T04:14:10.110Z,11.12
2018-10-06T04:16:39.272Z,11.14
2018-10-06T04:19:08.355Z,11.24
2018-10-06T04:21:44.558Z,11.24
2018-10-06T04:24:13.750Z,11.24
2018-10-06T04:26:42.804Z,11.22
2018-10-06T04:29:11.981Z,11.14
2018-10-06T04:31:41.376Z,11.10
2018-10-06T04:34:10.830Z,11.07
2018-10-06T04:36:40.019Z,11.08
2018-10-06T04:39:11.175Z,11.07
2018-10-06T04:41:40.207Z,11.00
2018-10-06T04:44:09.910Z,11.03
2018-10-06T04:46:39.365Z,11.17
2018-10-06T04:49:08.464Z,11.25
2018-10-06T04:51:37.609Z,11.23
2018-10-06T04:54:06.711Z,11.16
2018-10-06T04:56:36.136Z,11.11
2018-10-06T04:59:05.466Z,11.12
2018-10-06T05:01:34.538Z,11.03
2018-10-06T05:04:03.711Z,11.00
2018-10-06T05:06:33.116Z,11.11
2018-10-06T05:09:02.529Z,11.08
2018-10-06T05:11:31.511Z,11.17
2018-10-06T05:14:00.602Z,11.13
2018-10-06T05:16:29.908Z,11.32
2018-10-06T05:18:59.174Z,11.46
2018-10-06T05:21:28.263Z,11.72
2018-10-06T05:23:57.607Z,11.74
2018-10-06T05:26:26.732Z,11.63
2018-10-06T05:28:55.771Z,11.60
2018-10-06T05:31:24.822Z,11.84
2018-10-06T05:33:53.938Z,11.77
2018-10-06T05:36:23.415Z,11.88
2018-10-06T05:38:52.487Z,11.92
2018-10-06T05:41:22.095Z,12.00
2018-10-06T05:43:51.139Z,12.04
2018-10-06T05:46:20.528Z,11.96
2018-10-06T05:48:49.656Z,12.05
2018-10-06T05:51:18.728Z,12.10
2018-10-06T05:53:47.824Z,12.01
2018-10-06T05:56:16.892Z,12.11
2018-10-06T05:58:45.943Z,12.05
2018-10-06T06:01:14.986Z,12.37
2018-10-06T06:03:44.403Z,12.55
2018-10-06T06:06:13.577Z,12.91
2018-10-06T06:08:43.345Z,12.97
2018-10-06T06:11:12.810Z,13.09
2018-10-06T06:13:42.412Z,12.84
2018-10-06T06:16:11.533Z,12.78
2018-10-06T06:18:40.671Z,13.04
2018-10-06T06:21:09.806Z,13.21
2018-10-06T06:23:38.853Z,13.37
2018-10-06T06:26:07.999Z,13.41
2018-10-06T06:28:37.024Z,13.33
2018-10-06T06:31:06.164Z,13.35
2018-10-06T06:33:35.402Z,13.36
2018-10-06T06:36:04.456Z,13.25
2018-10-06T06:38:33.644Z,13.73
2018-10-06T06:41:02.756Z,13.57
2018-10-06T06:43:32.171Z,13.36
2018-10-06T06:46:01.287Z,13.48
2018-10-06T06:48:30.407Z,13.74
2018-10-06T06:50:59.710Z,13.88
2018-10-06T06:53:28.776Z,13.62
2018-10-06T06:55:57.937Z,13.53
2018-10-06T06:58:27.112Z,13.63
2018-10-06T07:00:56.830Z,13.91
2018-10-06T07:03:26.190Z,14.04
2018-10-06T07:05:55.380Z,14.36
2018-10-06T07:08:24.727Z,14.62
2018-10-06T07:10:53.775Z,14.86
2018-10-06T07:13:22.978Z,14.99
2018-10-06T07:15:52.083Z,15.11
2018-10-06T07:18:21.232Z,15.28
2018-10-06T07:20:50.321Z,15.25
2018-10-06T07:23:19.492Z,15.31
2018-10-06T07:25:48.531Z,15.28
2018-10-06T07:28:17.581Z,15.61
2018-10-06T07:30:46.673Z,15.32
2018-10-06T07:33:15.700Z,15.28
2018-10-06T07:35:44.822Z,15.36
2018-10-06T07:38:14.041Z,15.48
2018-10-06T07:40:43.124Z,15.73
2018-10-06T07:43:12.182Z,16.12
2018-10-06T07:45:41.531Z,16.33
2018-10-06T07:48:11.142Z,16.33
2018-10-06T07:50:40.260Z,16.39
2018-10-06T07:53:09.418Z,16.58
2018-10-06T07:55:38.481Z,16.86
2018-10-06T07:58:07.533Z,17.77
2018-10-06T08:00:36.540Z,17.73
2018-10-06T08:03:05.613Z,17.54
2018-10-06T08:05:34.667Z,17.87
2018-10-06T08:08:03.889Z,18.20
2018-10-06T08:10:32.942Z,17.63
2018-10-06T08:13:01.967Z,17.71
2018-10-06T08:15:31.076Z,17.95
2018-10-06T08:18:00.147Z,18.15
2018-10-06T08:20:29.241Z,18.40
2018-10-06T08:22:58.288Z,18.67
2018-10-06T08:25:27.379Z,19.10
2018-10-06T08:27:56.431Z,18.64
2018-10-06T08:30:25.468Z,19.24
2018-10-06T08:32:54.580Z,19.05
2018-10-06T08:35:23.826Z,19.53
2018-10-06T08:37:52.864Z,18.86
2018-10-06T08:40:22.012Z,19.16
2018-10-06T08:42:51.105Z,18.70
2018-10-06T08:45:20.222Z,18.91
2018-10-06T08:47:49.359Z,19.37
2018-10-06T08:50:18.468Z,19.17
2018-10-06T08:52:48.469Z,19.63
2018-10-06T08:55:17.562Z,20.22
2018-10-06T08:57:46.677Z,20.10
2018-10-06T09:00:15.760Z,19.85
2018-10-06T09:02:44.964Z,19.58
2018-10-06T09:05:14.404Z,19.92
2018-10-06T09:07:43.514Z,20.47
2018-10-06T09:10:13.129Z,20.19
2018-10-06T09:12:42.406Z,19.98
2018-10-06T09:15:11.471Z,19.31
2018-10-06T09:17:40.625Z,19.62
2018-10-06T09:20:09.668Z,19.27
2018-10-06T09:22:38.774Z,19.75
2018-10-06T09:25:08.020Z,19.86
2018-10-06T09:27:37.054Z,20.33
2018-10-06T09:30:06.134Z,20.78
2018-10-06T09:32:35.240Z,20.47
2018-10-06T09:35:04.286Z,19.93
2018-10-06T09:37:33.410Z,19.89
2018-10-06T09:40:02.403Z,21.04
2018-10-06T09:42:31.469Z,20.36
2018-10-06T09:45:00.620Z,19.75
2018-10-06T09:47:29.648Z,18.97
2018-10-06T09:49:58.702Z,19.60
2018-10-06T09:52:27.816Z,19.49
2018-10-06T09:54:56.871Z,19.46
2018-10-06T09:57:26.265Z,19.90
2018-10-06T09:59:55.310Z,19.45
2018-10-06T10:02:29.286Z,19.98
2018-10-06T10:05:03.358Z,20.26
2018-10-06T10:07:34.306Z,19.64
2018-10-06T10:10:04.021Z,19.84
2018-10-06T10:12:32.952Z,19.66
2018-10-06T10:15:02.006Z,19.69
2018-10-06T10:17:31.314Z,19.32
2018-10-06T10:20:00.596Z,19.45
2018-10-06T10:22:30.080Z,19.55
2018-10-06T10:24:59.142Z,19.51
2018-10-06T10:27:28.555Z,19.26
2018-10-06T10:29:58.001Z,19.75
2018-10-06T10:32:27.030Z,19.92
2018-10-06T10:34:56.285Z,20.21
2018-10-06T10:37:25.688Z,20.14
2018-10-06T10:39:54.710Z,20.77
2018-10-06T10:42:23.776Z,20.87
2018-10-06T10:44:53.083Z,20.66
2018-10-06T10:47:22.462Z,20.28
2018-10-06T10:49:52.117Z,20.99
2018-10-06T10:52:21.823Z,21.13
2018-10-06T10:54:50.818Z,20.54
2018-10-06T10:57:20.132Z,20.15
2018-10-06T10:59:49.717Z,19.92
2018-10-06T11:02:18.738Z,19.58
2018-10-06T11:04:48.359Z,19.67
2018-10-06T11:07:18.010Z,19.66
2018-10-06T11:09:47.107Z,19.55
2018-10-06T11:12:16.400Z,19.46
2018-10-06T11:14:45.500Z,19.78
2018-10-06T11:17:14.930Z,20.16
2018-10-06T11:19:44.195Z,19.86
2018-10-06T11:22:13.599Z,19.33
2018-10-06T11:24:42.736Z,20.61
2018-10-06T11:27:11.760Z,20.68
2018-10-06T11:29:41.992Z,20.46
2018-10-06T11:32:11.468Z,20.53
2018-10-06T11:34:40.526Z,20.32
2018-10-06T11:37:09.965Z,20.57
2018-10-06T11:39:39.440Z,20.46
2018-10-06T11:42:08.474Z,20.17
2018-10-06T11:44:37.990Z,21.06
2018-10-06T11:47:07.456Z,20.83
2018-10-06T11:49:36.676Z,20.21
2018-10-06T11:52:06.396Z,20.72
2018-10-06T11:54:35.459Z,20.37
2018-10-06T11:57:04.872Z,20.58
2018-10-06T11:59:33.996Z,20.66
2018-10-06T12:02:02.983Z,19.77
2018-10-06T12:04:32.161Z,20.17
2018-10-06T12:07:01.563Z,19.94
2018-10-06T12:09:30.862Z,19.94
2018-10-06T12:12:00.014Z,19.85
2018-10-06T12:14:29.095Z,20.18
2018-10-06T12:16:58.554Z,20.08
2018-10-06T12:19:27.955Z,19.94
2018-10-06T12:21:57.116Z,19.98
2018-10-06T12:24:26.080Z,20.06
2018-10-06T12:26:55.248Z,19.69
2018-10-06T12:29:24.452Z,19.81
2018-10-06T12:31:53.503Z,19.55
2018-10-06T12:34:22.897Z,19.53
2018-10-06T12:36:52.221Z,19.67
2018-10-06T12:39:21.551Z,19.63
2018-10-06T12:41:50.980Z,19.77
2018-10-06T12:44:20.312Z,19.34
2018-10-06T12:46:49.442Z,19.32
2018-10-06T12:49:18.900Z,19.83
2018-10-06T12:51:47.945Z,19.69
2018-10-06T12:54:16.983Z,20.13
2018-10-06T12:56:46.003Z,19.84
2018-10-06T12:59:15.114Z,19.94
2018-10-06T13:01:44.208Z,20.02
2018-10-06T13:04:13.292Z,20.05
2018-10-06T13:06:42.521Z,20.08
2018-10-06T13:09:12.661Z,20.10
2018-10-06T13:11:42.295Z,20.10
2018-10-06T13:14:11.350Z,19.79
2018-10-06T13:16:40.478Z,19.32
2018-10-06T13:19:09.512Z,19.31
2018-10-06T13:21:38.550Z,19.05
2018-10-06T13:24:08.016Z,19.27
2018-10-06T13:26:37.125Z,18.92
2018-10-06T13:29:06.741Z,19.20
2018-10-06T13:31:35.923Z,19.34
2018-10-06T13:34:04.987Z,19.40
2018-10-06T13:36:34.663Z,19.18
2018-10-06T13:39:04.500Z,19.22
2018-10-06T13:41:33.563Z,18.81
2018-10-06T13:44:02.650Z,18.65
2018-10-06T13:46:32.017Z,18.87
2018-10-06T13:49:01.014Z,19.01
2018-10-06T13:51:30.248Z,19.67
2018-10-06T13:54:00.002Z,19.72
2018-10-06T13:56:29.328Z,19.82
2018-10-06T13:58:58.764Z,19.36
2018-10-06T14:01:27.741Z,19.47
2018-10-06T14:03:57.272Z,19.81
2018-10-06T14:06:26.834Z,19.85
2018-10-06T14:08:56.252Z,19.79
2018-10-06T14:11:25.309Z,19.49
2018-10-06T14:13:54.408Z,19.26
2018-10-06T14:16:23.434Z,19.43
2018-10-06T14:18:52.464Z,19.48
2018-10-06T14:21:21.792Z,19.70
2018-10-06T14:23:50.850Z,19.82
2018-10-06T14:26:20.403Z,19.88
2018-10-06T14:28:49.829Z,19.54
2018-10-06T14:31:19.208Z,19.53
2018-10-06T14:33:48.663Z,19.25
2018-10-06T14:36:17.995Z,18.71
2018-10-06T14:38:47.298Z,18.70
2018-10-06T14:41:16.851Z,18.64
2018-10-06T14:43:45.960Z,18.57
2018-10-06T14:46:15.061Z,18.74
2018-10-06T14:48:44.367Z,18.70
2018-10-06T14:51:13.751Z,18.44
2018-10-06T14:53:42.880Z,18.16
2018-10-06T14:56:12.257Z,18.50
2018-10-06T14:58:41.600Z,18.39
2018-10-06T15:01:10.918Z,18.51
2018-10-06T15:03:40.274Z,18.49
2018-10-06T15:06:09.435Z,18.74
2018-10-06T15:08:39.036Z,19.70
2018-10-06T15:11:08.498Z,19.98
2018-10-06T15:13:37.936Z,20.19
2018-10-06T15:16:07.483Z,20.02
2018-10-06T15:18:37.053Z,20.06
2018-10-06T15:21:06.435Z,20.32
2018-10-06T15:23:35.995Z,19.97
2018-10-06T15:26:05.448Z,19.71
2018-10-06T15:28:34.890Z,19.71
2018-10-06T15:31:03.998Z,19.50
2018-10-06T15:33:33.043Z,18.99
2018-10-06T15:36:02.120Z,19.01
2018-10-06T15:38:31.397Z,19.15
2018-10-06T15:41:00.970Z,18.89
2018-10-06T15:43:30.353Z,18.23
2018-10-06T15:45:59.477Z,17.82
2018-10-06T15:48:28.814Z,17.62
2018-10-06T15:50:57.996Z,17.74
2018-10-06T15:53:27.075Z,17.80
2018-10-06T15:55:56.048Z,17.67
2018-10-06T15:58:25.089Z,17.05
2018-10-06T16:00:55.405Z,17.51
2018-10-06T16:03:25.108Z,17.40
2018-10-06T16:05:54.215Z,17.48
2018-10-06T16:08:23.600Z,17.47
2018-10-06T16:10:55.490Z,17.12
2018-10-06T16:13:24.963Z,17.23
2018-10-06T16:15:54.390Z,17.04
2018-10-06T16:18:23.551Z,17.29
2018-10-06T16:20:52.735Z,17.28
2018-10-06T16:23:22.579Z,17.42
2018-10-06T16:25:51.910Z,17.37
2018-10-06T16:28:21.279Z,17.32
2018-10-06T16:30:53.673Z,17.26
2018-10-06T16:33:23.100Z,17.01
2018-10-06T16:35:52.808Z,17.54
2018-10-06T16:38:22.791Z,17.40
2018-10-06T16:40:52.000Z,17.42
2018-10-06T16:43:21.211Z,17.05
2018-10-06T16:45:50.299Z,16.80
2018-10-06T16:48:19.731Z,17.21
2018-10-06T16:50:48.760Z,17.46
2018-10-06T16:53:17.889Z,17.42
2018-10-06T16:55:46.990Z,17.49
2018-10-06T16:58:16.106Z,17.30
2018-10-06T17:00:45.282Z,17.50
2018-10-06T17:03:14.436Z,17.16
2018-10-06T17:05:43.447Z,17.25
2018-10-06T17:08:12.516Z,17.20
2018-10-06T17:10:41.628Z,16.89
2018-10-06T17:13:10.696Z,16.50
2018-10-06T17:15:39.851Z,16.34
2018-10-06T17:18:08.911Z,16.41
2018-10-06T17:20:37.918Z,16.32
2018-10-06T17:23:07.544Z,16.08
2018-10-06T17:25:36.571Z,16.07
2018-10-06T17:28:05.622Z,16.30
2018-10-06T17:30:34.641Z,16.01
2018-10-06T17:33:03.970Z,16.31
2018-10-06T17:35:33.040Z,16.34
2018-10-06T17:38:02.136Z,16.40
2018-10-06T17:40:31.279Z,16.45
2018-10-06T17:43:00.413Z,16.61
2018-10-06T17:45:29.468Z,16.17
2018-10-06T17:47:58.554Z,15.94
2018-10-06T17:50:27.683Z,15.58
2018-10-06T17:52:56.744Z,15.87
2018-10-06T17:55:25.929Z,15.88
2018-10-06T17:57:55.330Z,15.67
2018-10-06T18:00:24.830Z,15.81
2018-10-06T18:02:53.846Z,15.53
2018-10-06T18:05:22.903Z,15.50
2018-10-06T18:07:51.884Z,15.47
2018-10-06T18:10:20.996Z,15.25
2018-10-06T18:12:50.150Z,15.23
2018-10-06T18:15:19.216Z,15.29
2018-10-06T18:17:48.364Z,15.03
2018-10-06T18:20:17.425Z,15.23
2018-10-06T18:22:46.562Z,15.38
2018-10-06T18:25:15.634Z,15.37
2018-10-06T18:27:45.197Z,15.42
2018-10-06T18:30:14.353Z,15.75
2018-10-06T18:32:43.783Z,15.57
2018-10-06T18:35:14.168Z,15.34
2018-10-06T18:37:44.008Z,15.46
2018-10-06T18:40:14.636Z,15.56
2018-10-06T18:42:43.816Z,15.74
2018-10-06T18:45:12.873Z,15.61
2018-10-06T18:47:41.948Z,15.60
2018-10-06T18:50:11.100Z,15.64
2018-10-06T18:52:40.146Z,15.80
2018-10-06T18:55:09.290Z,15.75
2018-10-06T18:57:38.465Z,15.88
2018-10-06T19:00:08.178Z,16.04
2018-10-06T19:02:37.234Z,15.81
2018-10-06T19:05:06.332Z,15.81
2018-10-06T19:07:35.382Z,15.82
2018-10-06T19:10:04.542Z,16.04
2018-10-06T19:12:33.595Z,16.26
2018-10-06T19:15:02.768Z,15.72
2018-10-06T19:17:31.773Z,15.66
2018-10-06T19:20:01.260Z,15.64
2018-10-06T19:22:30.279Z,15.58
2018-10-06T19:24:59.330Z,15.58
2018-10-06T19:27:28.433Z,15.64
2018-10-06T19:29:57.606Z,15.81
2018-10-06T19:32:26.644Z,16.12
2018-10-06T19:34:55.761Z,16.40
2018-10-06T19:37:24.802Z,16.68
2018-10-06T19:39:53.936Z,17.07
2018-10-06T19:42:23.002Z,17.04
2018-10-06T19:44:52.057Z,17.31
2018-10-06T19:47:21.143Z,17.45
2018-10-06T19:49:50.199Z,17.65
2018-10-06T19:52:19.287Z,17.74
2018-10-06T19:54:48.399Z,17.82
2018-10-06T19:57:17.500Z,17.62
2018-10-06T19:59:46.559Z,17.51
2018-10-06T20:02:15.682Z,17.37
2018-10-06T20:04:44.783Z,17.27
2018-10-06T20:07:13.870Z,17.62
2018-10-06T20:09:43.122Z,17.93
2018-10-06T20:12:12.197Z,17.74
2018-10-06T20:14:41.252Z,17.80
2018-10-06T20:17:10.347Z,17.69
2018-10-06T20:19:39.422Z,17.79
2018-10-06T20:22:10.847Z,17.82
2018-10-06T20:24:39.920Z,17.92
2018-10-06T20:27:09.424Z,17.72
2018-10-06T20:29:38.829Z,18.00
2018-10-06T20:32:07.898Z,17.68
2018-10-06T20:34:37.120Z,17.78
2018-10-06T20:37:06.291Z,17.97
2018-10-06T20:39:35.330Z,18.08
2018-10-06T20:42:04.323Z,18.11
2018-10-06T20:44:33.498Z,18.75
2018-10-06T20:47:02.552Z,18.26
2018-10-06T20:49:31.554Z,18.67
2018-10-06T20:52:00.660Z,18.87
2018-10-06T20:54:29.768Z,18.88
2018-10-06T20:56:58.824Z,19.16
2018-10-06T20:59:27.918Z,18.74
2018-10-06T21:01:56.984Z,18.88
2018-10-06T21:04:25.960Z,18.71
2018-10-06T21:06:55.092Z,18.33
2018-10-06T21:09:24.405Z,18.24
2018-10-06T21:11:53.588Z,18.91
2018-10-06T21:14:22.744Z,19.13
2018-10-06T21:16:51.765Z,19.04
2018-10-06T21:19:20.819Z,18.98
2018-10-06T21:21:50.033Z,18.95
2018-10-06T21:24:19.091Z,18.57
2018-10-06T21:26:48.545Z,18.69
2018-10-06T21:29:17.950Z,18.40
2018-10-06T21:31:47.140Z,18.22
2018-10-06T21:34:16.651Z,18.06
2018-10-06T21:36:45.696Z,18.14
2018-10-06T21:39:14.753Z,17.82
2018-10-06T21:41:43.841Z,17.73
2018-10-06T21:44:12.880Z,17.73
2018-10-06T21:46:42.247Z,17.44
2018-10-06T21:49:11.498Z,17.36
2018-10-06T21:51:40.546Z,17.42
2018-10-06T21:54:09.854Z,17.48
2018-10-06T21:56:39.090Z,17.67
2018-10-06T21:59:08.515Z,17.64
2018-10-06T22:01:37.990Z,17.95
2018-10-06T22:04:07.819Z,18.51
2018-10-06T22:06:37.035Z,18.78
2018-10-06T22:09:07.062Z,18.51
2018-10-06T22:11:36.346Z,18.55
2018-10-06T22:14:05.767Z,18.18
2018-10-06T22:16:34.830Z,18.54
2018-10-06T22:19:04.279Z,18.94
2018-10-06T22:21:33.666Z,18.69
2018-10-06T22:24:02.782Z,18.43
2018-10-06T22:26:32.065Z,18.28
2018-10-06T22:29:01.511Z,18.73
2018-10-06T22:31:30.862Z,18.47
2018-10-06T22:34:00.509Z,18.32
2018-10-06T22:36:29.968Z,18.59
2018-10-06T22:38:59.452Z,18.19
2018-10-06T22:41:29.223Z,18.32
2018-10-06T22:43:58.628Z,18.23
2018-10-06T22:46:28.136Z,18.22
2018-10-06T22:48:57.194Z,18.26
2018-10-06T22:51:26.246Z,18.23
2018-10-06T22:53:55.512Z,17.69
2018-10-06T22:56:24.644Z,17.36
2018-10-06T22:58:53.724Z,17.07
2018-10-06T23:01:22.869Z,16.71
2018-10-06T23:03:52.267Z,16.52
2018-10-06T23:06:21.796Z,16.46
2018-10-06T23:08:51.068Z,16.42
2018-10-06T23:11:20.308Z,16.35
2018-10-06T23:13:49.867Z,16.32
2018-10-06T23:16:19.182Z,16.32
2018-10-06T23:18:48.206Z,16.31
2018-10-06T23:21:17.324Z,16.24
2018-10-06T23:23:46.385Z,16.29
2018-10-06T23:26:15.440Z,16.21
2018-10-06T23:28:44.733Z,16.13
2018-10-06T23:31:13.795Z,16.00
2018-10-06T23:33:43.000Z,15.90
2018-10-06T23:36:12.048Z,15.81
2018-10-06T23:38:41.271Z,15.69
2018-10-06T23:41:10.671Z,15.84
2018-10-06T23:43:40.022Z,15.79
2018-10-06T23:46:09.532Z,16.10
2018-10-06T23:48:38.848Z,15.95
2018-10-06T23:51:07.992Z,15.90
2018-10-06T23:53:37.102Z,15.97
2018-10-06T23:56:06.478Z,15.92
2018-10-06T23:58:35.764Z,15.90
